Latest Weather Observations for Mandurah

IDW60801

Issued at 12:33 pm WST Saturday 3 December 2016 (issued every 30 minutes, with the page automatically refreshed every 10 minutes)

About weather observations | Map of weather stations | Latest weather observations for WA | Other Formats
Station Details ID: 009977 Name: MANDURAH Lat: -32.52 Lon: 115.71 Height: 3.0 m
Data from the previous 72 hours. | See also: Recent months at Mandurah
Date/Time
WST
Temp
°C
App
Temp
°C
Dew
Point
°C
Rel
Hum
%
Delta-T
°C
Wind Press
QNH
hPa
Press
MSL
hPa
Rain since
9am
mm
Dir  Spd
km/h
Gust
km/h
Spd
kts
Gust
kts
03/12:30pm 20.7 18.9 13.2 62 4.3 WNW 15 22 8 12 1008.9 1008.9 0.0
03/12:00pm 20.7 19.1 12.9 61 4.4 WNW 13 19 7 10 1009.1 1009.1 0.0
03/11:30am 20.7 18.1 12.1 58 4.8 W 17 24 9 13 1009.4 1009.4 0.0
03/11:00am 20.1 17.8 11.8 59 4.6 WNW 15 20 8 11 1009.4 1009.4 0.0
03/10:30am 20.1 17.8 11.6 58 4.7 WNW 15 20 8 11 1009.4 1009.4 0.0
03/10:00am 20.1 18.4 11.3 57 4.8 W 11 19 6 10 1009.2 1009.2 0.0
03/09:30am 19.9 18.3 11.4 58 4.7 W 11 19 6 10 1009.2 1009.2 0.0
03/09:00am 19.5 17.9 11.5 60 4.4 WSW 11 19 6 10 1009.1 1009.1 0.0
03/08:30am 18.0 18.5 11.6 66 3.5 CALM 0 9 0 5 1009.3 1009.3 0.0
03/08:00am 17.2 16.4 11.2 68 3.2 SSE 6 9 3 5 1009.0 1009.0 0.0
03/07:30am 16.5 16.1 11.0 70 2.9 SSE 4 7 2 4 1008.7 1008.7 0.0
03/07:00am 16.5 15.7 11.6 73 2.7 SSE 7 11 4 6 1008.5 1008.5 0.0
03/06:30am 16.0 15.3 12.0 77 2.2 SSE 7 13 4 7 1008.5 1008.5 0.0
03/06:00am 15.3 15.0 11.5 78 2.0 SE 4 6 2 3 1008.1 1008.1 0.0
03/05:30am 15.0 14.2 11.2 78 2.0 SE 6 9 3 5 1008.0 1008.0 0.0
03/05:00am 14.7 13.8 10.5 76 2.2 SE 6 9 3 5 1007.9 1007.9 0.0
03/04:30am 15.4 14.6 11.0 75 2.3 ESE 6 7 3 4 1007.5 1007.5 0.0
03/04:00am 16.9 15.5 12.2 74 2.6 SSW 11 20 6 11 1007.1 1007.1 0.0
03/03:30am 16.9 15.1 12.2 74 2.6 SSW 13 19 7 10 1007.0 1007.0 0.0
03/03:00am 16.9 15.1 12.2 74 2.6 SSW 13 22 7 12 1007.2 1007.2 0.0
03/02:30am 17.3 15.6 12.4 73 2.7 SSW 13 22 7 12 1007.3 1007.3 0.0
03/02:00am 17.3 15.1 12.2 72 2.8 SW 15 22 8 12 1007.5 1007.5 0.0
03/01:30am 17.6 16.6 12.3 71 2.9 SW 9 19 5 10 1007.6 1007.6 0.0
03/01:00am 17.8 16.4 12.3 70 3.0 SSW 11 19 6 10 1007.5 1007.5 0.0
03/12:30am 18.0 16.6 12.2 69 3.2 SSW 11 20 6 11 1007.8 1007.8 0.0
03/12:00am 18.2 15.5 11.7 66 3.6 SSW 17 24 9 13 1008.0 1008.0 0.0
 
Date/Time
WST
Temp
°C
App
Temp
°C
Dew
Point
°C
Rel
Hum
%
Delta-T
°C
Wind Press
QNH
hPa
Press
MSL
hPa
Rain since
9am
mm
Dir  Spd
km/h
Gust
km/h
Spd
kts
Gust
kts
02/11:30pm 18.5 16.1 11.3 63 3.9 SSW 15 24 8 13 1008.4 1008.4 0.0
02/11:00pm 18.9 16.6 11.7 63 4.0 SSW 15 28 8 15 1008.7 1008.7 0.0
02/10:30pm 18.9 17.4 13.1 69 3.3 SW 13 19 7 10 1008.7 1008.7 0.0
02/10:00pm 18.9 17.8 13.1 69 3.3 SW 11 20 6 11 1008.8 1008.8 0.0
02/09:30pm 18.7 18.0 13.1 70 3.2 SSW 9 15 5 8 1009.0 1009.0 0.0
02/09:00pm 18.8 18.1 13.2 70 3.2 SSW 9 17 5 9 1009.0 1009.0 0.0
02/08:30pm 19.1 18.4 13.3 69 3.3 SSW 9 15 5 8 1009.2 1009.2 0.0
02/08:00pm 19.1 18.1 13.3 69 3.3 SSW 11 17 6 9 1009.2 1009.2 0.0
02/07:30pm 19.5 18.3 12.8 65 3.8 SSW 11 17 6 9 1009.3 1009.3 0.0
02/07:00pm 19.7 17.5 12.2 62 4.2 SSW 15 24 8 13 1009.4 1009.4 0.0
02/06:30pm 19.8 17.1 11.8 60 4.4 SSW 17 24 9 13 1009.5 1009.5 0.0
02/06:00pm 20.4 17.8 12.1 59 4.6 SSW 17 24 9 13 1009.4 1009.4 0.0
02/05:30pm 20.9 18.6 11.8 56 5.1 SSW 15 24 8 13 1009.1 1009.1 0.0
02/05:00pm 21.3 18.3 12.4 57 5.0 SW 20 33 11 18 1009.1 1009.1 0.0
02/04:30pm 21.8 17.7 11.5 52 5.7 WSW 24 33 13 18 1009.2 1009.2 0.0
02/04:00pm 22.2 18.5 11.6 51 5.9 SW 22 32 12 17 1009.3 1009.3 0.0
02/03:30pm 22.4 19.0 11.2 49 6.2 SW 20 32 11 17 1009.5 1009.5 0.0
02/03:00pm 22.6 18.8 12.3 52 5.8 SW 24 32 13 17 1009.8 1009.8 0.0
02/02:30pm 22.7 19.1 12.0 50 6.0 SW 22 30 12 16 1010.0 1010.0 0.0
02/02:00pm 23.0 19.4 11.7 49 6.4 WSW 22 32 12 17 1010.2 1010.2 0.0
02/01:30pm 22.6 18.6 11.7 50 6.1 WSW 24 32 13 17 1010.4 1010.4 0.0
02/01:00pm 23.3 19.3 11.7 48 6.5 WSW 24 33 13 18 1010.6 1010.6 0.0
02/12:30pm 23.3 19.5 12.3 50 6.3 WSW 24 33 13 18 1011.0 1011.0 0.0
02/12:00pm 22.8 19.3 10.9 47 6.6 WSW 20 28 11 15 1011.1 1011.1 0.0
02/11:30am 24.0 21.5 11.0 44 7.3 W 15 19 8 10 1011.3 1011.3 0.0
02/11:00am 22.0 19.7 10.5 48 6.3 WNW 13 19 7 10 1011.7 1011.7 0.0
02/10:30am 23.4 21.8 10.1 43 7.3 NW 9 11 5 6 1012.1 1012.1 0.0
02/10:00am 24.0 22.1 7.6 35 8.6 E 7 15 4 8 1012.4 1012.4 0.0
02/09:30am 22.3 20.6 7.7 39 7.6 E 6 11 3 6 1012.8 1012.8 0.0
02/09:00am 21.5 19.6 7.7 41 7.2 ENE 7 13 4 7 1013.3 1013.3 0.0
02/08:30am 19.8 17.5 7.5 45 6.3 E 9 17 5 9 1013.6 1013.6 0.0
02/08:00am 18.8 16.2 7.6 48 5.7 ESE 11 17 6 9 1013.6 1013.6 0.0
02/07:30am 17.3 14.3 7.6 53 4.9 ESE 13 20 7 11 1013.9 1013.9 0.0
02/07:00am 16.4 13.7 7.3 55 4.5 ESE 11 17 6 9 1014.1 1014.1 0.0
02/06:30am 15.2 12.1 7.3 59 3.9 E 13 20 7 11 1014.0 1014.0 0.0
02/06:00am 14.6 11.9 7.2 61 3.6 E 11 17 6 9 1013.8 1013.8 0.0
02/05:30am 14.1 11.3 6.9 62 3.5 ESE 11 17 6 9 1013.5 1013.5 0.0
02/05:00am 14.3 11.5 7.1 62 3.5 ESE 11 17 6 9 1013.6 1013.6 0.0
02/04:30am 14.5 12.1 7.1 61 3.6 ESE 9 15 5 8 1013.5 1013.5 0.0
02/04:00am 14.8 12.0 7.1 60 3.8 ESE 11 15 6 8 1013.3 1013.3 0.0
02/03:30am 15.0 12.6 7.1 59 3.9 SE 9 13 5 7 1013.4 1013.4 0.0
02/03:00am 15.3 12.2 7.1 58 4.0 ESE 13 20 7 11 1013.1 1013.1 0.0
02/02:30am 15.8 13.1 7.3 57 4.2 SE 11 19 6 10 1013.4 1013.4 0.0
02/02:00am 15.9 12.4 7.4 57 4.2 SE 15 22 8 12 1013.1 1013.1 0.0
02/01:30am 16.3 12.9 7.8 57 4.3 SSE 15 20 8 11 1013.1 1013.1 0.0
02/01:00am 16.3 13.6 9.0 62 3.8 SSE 13 20 7 11 1013.3 1013.3 0.0
02/12:30am 16.6 13.6 9.1 61 3.9 SSE 15 22 8 12 1013.5 1013.5 0.0
02/12:00am 16.9 13.5 9.3 61 3.9 SSE 17 28 9 15 1013.6 1013.6 0.0
 
Date/Time
WST
Temp
°C
App
Temp
°C
Dew
Point
°C
Rel
Hum
%
Delta-T
°C
Wind Press
QNH
hPa
Press
MSL
hPa
Rain since
9am
mm
Dir  Spd
km/h
Gust
km/h
Spd
kts
Gust
kts
01/11:30pm 17.1 13.3 9.0 59 4.2 SSE 19 28 10 15 1013.7 1013.7 0.0
01/11:00pm 17.3 13.1 8.4 56 4.6 S 20 32 11 17 1014.0 1014.0 0.0
01/10:30pm 17.8 13.3 8.6 55 4.7 S 22 33 12 18 1014.1 1014.1 0.0
01/10:00pm 18.1 13.2 8.4 53 5.0 S 24 35 13 19 1014.1 1014.1 0.0
01/09:30pm 18.4 13.6 8.7 53 5.0 S 24 37 13 20 1014.2 1014.2 0.0
01/09:00pm 19.1 14.7 9.0 52 5.3 S 22 33 12 18 1014.1 1014.1 0.0
01/08:30pm 19.6 15.6 10.3 55 5.0 S 22 33 12 18 1013.9 1013.9 0.0
01/08:00pm 19.8 16.2 10.5 55 5.0 S 20 35 11 19 1013.7 1013.7 0.0
01/07:30pm 19.9 15.9 10.3 54 5.2 SSW 22 32 12 17 1013.7 1013.7 0.0
01/07:00pm 19.9 16.7 11.4 58 4.7 SSW 19 33 10 18 1013.7 1013.7 0.0
01/06:30pm 19.9 16.8 11.7 59 4.5 SSW 19 28 10 15 1013.6 1013.6 0.0
01/06:00pm 20.1 16.7 11.3 57 4.8 SSW 20 32 11 17 1013.4 1013.4 0.0
01/05:30pm 20.4 16.6 11.1 55 5.1 SSW 22 37 12 20 1013.4 1013.4 0.0
01/05:00pm 20.7 16.5 11.1 54 5.3 SSW 24 35 13 19 1013.4 1013.4 0.0
01/04:30pm 20.9 16.8 10.1 50 5.8 SSW 22 33 12 18 1013.6 1013.6 0.0
01/04:00pm 21.3 17.7 10.5 50 5.9 SSW 20 30 11 16 1013.9 1013.9 0.0
01/03:30pm 21.4 17.6 9.9 48 6.2 SW 20 41 11 22 1014.1 1014.1 0.0
01/03:00pm 21.5 16.5 9.7 47 6.3 WSW 26 37 14 20 1014.2 1014.2 0.0
01/02:30pm 21.5 17.2 9.4 46 6.5 SW 22 32 12 17 1014.6 1014.6 0.0
01/02:00pm 20.4 15.8 9.6 50 5.8 SW 24 32 13 17 1014.7 1014.7 0.0
01/01:30pm 21.5 16.8 9.4 46 6.5 SW 24 33 13 18 1015.1 1015.1 0.0
01/01:00pm 21.1 16.8 9.4 47 6.2 WSW 22 33 12 18 1015.2 1015.2 0.0
01/12:30pm 21.5 17.4 10.0 48 6.2 SW 22 32 12 17 1015.5 1015.5 0.0
01/12:00pm 22.0 17.1 9.9 46 6.5 WSW 26 33 14 18 1015.7 1015.7 0.0
01/11:30am 21.1 16.9 9.7 48 6.1 SW 22 32 12 17 1016.0 1016.0 0.0
01/11:00am 21.6 19.2 10.1 48 6.2 SSW 13 26 7 14 1016.2 1016.2 0.0
01/10:30am 20.5 18.2 9.1 48 6.0 S 11 19 6 10 1016.4 1016.4 0.0
01/10:00am 20.4 17.9 9.6 50 5.8 S 13 24 7 13 1016.5 1016.5 0.0
01/09:30am 20.4 18.3 11.1 55 5.1 SSE 13 17 7 9 1016.5 1016.5 0.0
01/09:00am 19.4 17.6 10.9 58 4.6 SSE 11 17 6 9 1016.6 1016.6 0.0
01/08:30am 19.5 17.6 11.8 61 4.3 SSE 13 22 7 12 1016.6 1016.6 0.0
01/08:00am 18.4 16.5 11.9 66 3.6 SSE 13 20 7 11 1016.7 1016.7 0.0
01/07:30am 17.9 16.2 12.6 71 2.9 SSE 13 20 7 11 1016.5 1016.5 0.0
01/07:00am 17.4 15.8 12.9 75 2.5 SE 13 17 7 9 1016.2 1016.2 0.0
01/06:30am 16.9 14.7 12.2 74 2.6 SSE 15 22 8 12 1016.0 1016.0 0.0
01/06:00am 17.3 15.8 12.0 71 2.9 SSE 11 15 6 8 1015.6 1015.6 0.0
01/05:30am 17.1 16.5 11.8 71 2.9 SSE 6 11 3 6 1015.3 1015.3 0.0
01/05:00am 17.0 16.1 11.5 70 3.0 SE 7 9 4 5 1015.1 1015.1 0.0
01/04:30am 17.2 16.1 11.9 71 2.9 SE 9 13 5 7 1014.9 1014.9 0.0
01/04:00am 17.2 16.5 11.9 71 2.9 SE 7 11 4 6 1014.6 1014.6 0.0
01/03:30am 17.0 15.8 11.7 71 2.9 SE 9 13 5 7 1014.5 1014.5 0.0
01/03:00am 17.0 15.8 11.5 70 3.0 SE 9 15 5 8 1014.6 1014.6 0.0
01/02:30am 17.2 16.1 11.9 71 2.9 SE 9 11 5 6 1014.5 1014.5 0.0
01/02:00am 17.4 15.5 11.7 69 3.1 SE 13 17 7 9 1014.7 1014.7 0.0
01/01:30am 17.7 15.8 11.9 69 3.2 SSE 13 19 7 10 1014.9 1014.9 0.0
01/01:00am 17.7 15.8 11.7 68 3.3 SSE 13 20 7 11 1015.0 1015.0 0.0
01/12:30am 17.6 15.5 11.2 66 3.5 SSE 13 20 7 11 1015.1 1015.1 0.0
01/12:00am 17.9 15.1 11.2 65 3.6 SSE 17 24 9 13 1015.2 1015.2 0.0
 
Date/Time
WST
Temp
°C
App
Temp
°C
Dew
Point
°C
Rel
Hum
%
Delta-T
°C
Wind Press
QNH
hPa
Press
MSL
hPa
Rain since
9am
mm
Dir  Spd
km/h
Gust
km/h
Spd
kts
Gust
kts
30/11:30pm 18.2 14.9 11.0 63 3.9 SSE 19 28 10 15 1015.4 1015.4 0.0
30/11:00pm 18.5 16.2 11.8 65 3.7 S 15 24 8 13 1015.3 1015.3 0.0
30/10:30pm 18.8 15.7 11.6 63 4.0 S 19 32 10 17 1015.3 1015.3 0.0
30/10:00pm 18.9 15.3 11.9 64 3.9 S 22 33 12 18 1015.2 1015.2 0.0
30/09:30pm 18.9 16.0 12.2 65 3.7 S 19 33 10 18 1015.2 1015.2 0.0
30/09:00pm 19.0 15.2 12.3 65 3.7 SSW 24 33 13 18 1015.1 1015.1 0.0
30/08:30pm 19.0 14.7 12.0 64 3.9 SSW 26 39 14 21 1014.8 1014.8 0.0
30/08:00pm 18.9 15.9 12.4 66 3.6 SSW 20 33 11 18 1014.7 1014.7 0.0
30/07:30pm 19.0 15.4 12.0 64 3.9 SSW 22 37 12 20 1014.6 1014.6 0.0
30/07:00pm 19.1 15.6 12.1 64 3.9 SSW 22 35 12 19 1014.2 1014.2 0.0
30/06:30pm 19.3 15.6 11.6 61 4.2 SSW 22 35 12 19 1014.1 1014.1 0.0
30/06:00pm 19.9 16.3 11.9 60 4.4 SSW 22 33 12 18 1013.8 1013.8 0.0
30/05:30pm 20.3 16.7 11.8 58 4.7 SSW 22 33 12 18 1013.5 1013.5 0.0
30/05:00pm 20.5 16.9 11.7 57 4.9 SSW 22 35 12 19 1013.2 1013.2 0.0
30/04:30pm 21.1 17.7 11.4 54 5.4 SSW 20 33 11 18 1013.1 1013.1 0.0
30/04:00pm 21.9 18.3 10.4 48 6.3 SSW 20 28 11 15 1013.0 1013.0 0.0
30/03:30pm 21.4 17.4 10.6 50 5.9 SSW 22 33 12 18 1013.2 1013.2 0.0
30/03:00pm 21.7 17.9 11.1 51 5.9 SSW 22 37 12 20 1013.4 1013.4 0.0
30/02:30pm 21.4 17.3 11.4 53 5.5 SSW 24 37 13 20 1013.6 1013.6 0.0
30/02:00pm 21.6 17.8 11.3 52 5.7 SSW 22 32 12 17 1013.8 1013.8 0.0
30/01:30pm 21.6 17.0 12.2 55 5.3 WSW 28 39 15 21 1013.6 1013.6 0.0
30/01:00pm 21.7 17.1 12.3 55 5.3 SW 28 41 15 22 1013.7 1013.7 0.0

Other Formats:

Comma delimited format used in spreadsheet applications
http://www.bom.gov.au/fwo/IDW60801/IDW60801.94605.axf

JavaScript Object Notation format (JSON) in row-major order
http://www.bom.gov.au/fwo/IDW60801/IDW60801.94605.json